sensor_id;sensor_type;location;lat;lon;timestamp;P1;durP1;ratioP1;P2;durP2;ratioP2
4808;SDS011;2418;49.930;8.606;2022-07-29T00:01:25;5.00;;;1.60;;
4808;SDS011;2418;49.930;8.606;2022-07-29T00:03:51;3.80;;;1.40;;
4808;SDS011;2418;49.930;8.606;2022-07-29T00:06:17;28.52;;;2.50;;
4808;SDS011;2418;49.930;8.606;2022-07-29T00:08:43;6.47;;;1.80;;
4808;SDS011;2418;49.930;8.606;2022-07-29T00:11:08;3.88;;;2.00;;
4808;SDS011;2418;49.930;8.606;2022-07-29T00:13:34;8.00;;;1.77;;
4808;SDS011;2418;49.930;8.606;2022-07-29T00:16:00;5.45;;;1.88;;
4808;SDS011;2418;49.930;8.606;2022-07-29T00:18:26;6.95;;;1.70;;
4808;SDS011;2418;49.930;8.606;2022-07-29T00:20:52;2.90;;;1.50;;
4808;SDS011;2418;49.930;8.606;2022-07-29T00:23:18;3.97;;;1.70;;
4808;SDS011;2418;49.930;8.606;2022-07-29T00:25:44;5.50;;;1.60;;
4808;SDS011;2418;49.930;8.606;2022-07-29T00:28:10;1.65;;;1.55;;
4808;SDS011;2418;49.930;8.606;2022-07-29T00:30:36;9.68;;;2.50;;
4808;SDS011;2418;49.930;8.606;2022-07-29T00:33:01;4.00;;;2.50;;
4808;SDS011;2418;49.930;8.606;2022-07-29T00:35:27;2.00;;;1.60;;
4808;SDS011;2418;49.930;8.606;2022-07-29T00:38:08;4.13;;;2.05;;
4808;SDS011;2418;49.930;8.606;2022-07-29T00:40:34;6.95;;;1.65;;
4808;SDS011;2418;49.930;8.606;2022-07-29T00:43:00;6.55;;;1.83;;
4808;SDS011;2418;49.930;8.606;2022-07-29T00:45:26;9.00;;;2.00;;
4808;SDS011;2418;49.930;8.606;2022-07-29T00:47:52;2.65;;;1.90;;
4808;SDS011;2418;49.930;8.606;2022-07-29T00:50:18;4.90;;;1.63;;
4808;SDS011;2418;49.930;8.606;2022-07-29T00:52:44;3.28;;;1.88;;
4808;SDS011;2418;49.930;8.606;2022-07-29T00:55:11;5.50;;;1.60;;
4808;SDS011;2418;49.930;8.606;2022-07-29T00:57:37;8.10;;;1.50;;
4808;SDS011;2418;49.930;8.606;2022-07-29T01:00:04;3.20;;;1.80;;
4808;SDS011;2418;49.930;8.606;2022-07-29T01:02:30;5.28;;;1.77;;
4808;SDS011;2418;49.930;8.606;2022-07-29T01:04:56;5.50;;;1.60;;
4808;SDS011;2418;49.930;8.606;2022-07-29T01:07:23;5.75;;;2.08;;
4808;SDS011;2418;49.930;8.606;2022-07-29T01:09:50;3.77;;;1.87;;
4808;SDS011;2418;49.930;8.606;2022-07-29T01:12:20;3.20;;;1.85;;
4808;SDS011;2418;49.930;8.606;2022-07-29T01:14:47;2.90;;;1.40;;
4808;SDS011;2418;49.930;8.606;2022-07-29T01:17:19;3.42;;;1.90;;
4808;SDS011;2418;49.930;8.606;2022-07-29T01:19:58;2.67;;;1.90;;
4808;SDS011;2418;49.930;8.606;2022-07-29T01:25:02;5.78;;;2.00;;
4808;SDS011;2418;49.930;8.606;2022-07-29T01:27:38;2.60;;;1.90;;
4808;SDS011;2418;49.930;8.606;2022-07-29T01:30:07;6.03;;;2.07;;
4808;SDS011;2418;49.930;8.606;2022-07-29T01:32:33;2.15;;;1.63;;
4808;SDS011;2418;49.930;8.606;2022-07-29T01:35:05;9.00;;;1.93;;
4808;SDS011;2418;49.930;8.606;2022-07-29T01:37:34;5.60;;;1.85;;
4808;SDS011;2418;49.930;8.606;2022-07-29T01:40:02;4.80;;;1.95;;
4808;SDS011;2418;49.930;8.606;2022-07-29T01:45:02;1.80;;;1.70;;
4808;SDS011;2418;49.930;8.606;2022-07-29T01:47:33;3.35;;;1.85;;
4808;SDS011;2418;49.930;8.606;2022-07-29T01:50:00;3.90;;;2.30;;
4808;SDS011;2418;49.930;8.606;2022-07-29T01:52:43;2.22;;;2.13;;
4808;SDS011;2418;49.930;8.606;2022-07-29T01:55:13;2.90;;;2.20;;
4808;SDS011;2418;49.930;8.606;2022-07-29T01:57:42;2.40;;;1.90;;
4808;SDS011;2418;49.930;8.606;2022-07-29T02:00:08;3.00;;;2.17;;
4808;SDS011;2418;49.930;8.606;2022-07-29T02:02:35;1.98;;;1.88;;
4808;SDS011;2418;49.930;8.606;2022-07-29T02:05:01;3.40;;;2.30;;
4808;SDS011;2418;49.930;8.606;2022-07-29T02:07:29;4.18;;;1.83;;
4808;SDS011;2418;49.930;8.606;2022-07-29T02:09:57;5.10;;;2.20;;
4808;SDS011;2418;49.930;8.606;2022-07-29T02:12:24;3.50;;;1.80;;
4808;SDS011;2418;49.930;8.606;2022-07-29T02:14:51;2.30;;;2.03;;
4808;SDS011;2418;49.930;8.606;2022-07-29T02:17:21;2.20;;;2.10;;
4808;SDS011;2418;49.930;8.606;2022-07-29T02:19:47;4.53;;;2.10;;
4808;SDS011;2418;49.930;8.606;2022-07-29T02:22:14;2.15;;;1.95;;
4808;SDS011;2418;49.930;8.606;2022-07-29T02:24:41;5.20;;;2.20;;
4808;SDS011;2418;49.930;8.606;2022-07-29T02:27:08;3.70;;;2.10;;
4808;SDS011;2418;49.930;8.606;2022-07-29T02:29:35;5.45;;;2.28;;
4808;SDS011;2418;49.930;8.606;2022-07-29T02:32:02;3.50;;;2.50;;
4808;SDS011;2418;49.930;8.606;2022-07-29T02:34:29;2.33;;;2.23;;
4808;SDS011;2418;49.930;8.606;2022-07-29T02:36:55;3.30;;;2.60;;
4808;SDS011;2418;49.930;8.606;2022-07-29T02:39:22;4.20;;;2.10;;
4808;SDS011;2418;49.930;8.606;2022-07-29T02:41:55;4.65;;;2.58;;
4808;SDS011;2418;49.930;8.606;2022-07-29T02:44:24;4.55;;;2.30;;
4808;SDS011;2418;49.930;8.606;2022-07-29T02:46:54;4.00;;;1.90;;
4808;SDS011;2418;49.930;8.606;2022-07-29T02:51:58;7.90;;;2.90;;
4808;SDS011;2418;49.930;8.606;2022-07-29T02:56:54;2.95;;;2.65;;
4808;SDS011;2418;49.930;8.606;2022-07-29T02:59:24;3.50;;;1.83;;
4808;SDS011;2418;49.930;8.606;2022-07-29T03:01:52;4.20;;;2.33;;
4808;SDS011;2418;49.930;8.606;2022-07-29T03:04:19;3.00;;;2.70;;
4808;SDS011;2418;49.930;8.606;2022-07-29T03:06:45;8.98;;;2.70;;
4808;SDS011;2418;49.930;8.606;2022-07-29T03:09:11;2.60;;;2.40;;
4808;SDS011;2418;49.930;8.606;2022-07-29T03:11:39;2.75;;;2.60;;
4808;SDS011;2418;49.930;8.606;2022-07-29T03:14:05;2.65;;;2.45;;
4808;SDS011;2418;49.930;8.606;2022-07-29T03:16:31;3.35;;;2.10;;
4808;SDS011;2418;49.930;8.606;2022-07-29T03:18:57;3.70;;;2.20;;
4808;SDS011;2418;49.930;8.606;2022-07-29T03:21:23;4.88;;;2.55;;
4808;SDS011;2418;49.930;8.606;2022-07-29T03:23:49;2.47;;;2.28;;
4808;SDS011;2418;49.930;8.606;2022-07-29T03:26:15;3.22;;;2.65;;
4808;SDS011;2418;49.930;8.606;2022-07-29T03:28:41;6.15;;;3.13;;
4808;SDS011;2418;49.930;8.606;2022-07-29T03:31:06;4.68;;;2.50;;
4808;SDS011;2418;49.930;8.606;2022-07-29T03:33:32;3.47;;;2.57;;
4808;SDS011;2418;49.930;8.606;2022-07-29T03:35:58;3.03;;;2.73;;
4808;SDS011;2418;49.930;8.606;2022-07-29T03:38:27;5.07;;;2.78;;
4808;SDS011;2418;49.930;8.606;2022-07-29T03:41:04;3.85;;;2.40;;
4808;SDS011;2418;49.930;8.606;2022-07-29T03:43:32;5.35;;;2.45;;
4808;SDS011;2418;49.930;8.606;2022-07-29T03:46:02;4.55;;;2.50;;
4808;SDS011;2418;49.930;8.606;2022-07-29T03:48:31;2.05;;;1.95;;
4808;SDS011;2418;49.930;8.606;2022-07-29T03:50:58;2.67;;;2.45;;
4808;SDS011;2418;49.930;8.606;2022-07-29T03:53:24;2.58;;;2.38;;
4808;SDS011;2418;49.930;8.606;2022-07-29T03:55:52;3.40;;;2.30;;
4808;SDS011;2418;49.930;8.606;2022-07-29T03:58:20;2.97;;;2.40;;
4808;SDS011;2418;49.930;8.606;2022-07-29T04:00:46;2.67;;;2.47;;
4808;SDS011;2418;49.930;8.606;2022-07-29T04:03:12;3.10;;;2.63;;
4808;SDS011;2418;49.930;8.606;2022-07-29T04:05:39;3.57;;;2.97;;
4808;SDS011;2418;49.930;8.606;2022-07-29T04:08:05;8.80;;;2.70;;
4808;SDS011;2418;49.930;8.606;2022-07-29T04:10:31;3.65;;;2.60;;
4808;SDS011;2418;49.930;8.606;2022-07-29T04:12:58;2.78;;;2.40;;
4808;SDS011;2418;49.930;8.606;2022-07-29T04:15:24;4.40;;;2.58;;
4808;SDS011;2418;49.930;8.606;2022-07-29T04:17:50;3.65;;;2.83;;
4808;SDS011;2418;49.930;8.606;2022-07-29T04:20:16;2.70;;;2.50;;
4808;SDS011;2418;49.930;8.606;2022-07-29T04:22:42;4.67;;;2.70;;
4808;SDS011;2418;49.930;8.606;2022-07-29T04:25:08;3.58;;;2.72;;
4808;SDS011;2418;49.930;8.606;2022-07-29T04:27:34;9.43;;;2.92;;
4808;SDS011;2418;49.930;8.606;2022-07-29T04:30:01;6.97;;;2.30;;
4808;SDS011;2418;49.930;8.606;2022-07-29T04:32:27;4.90;;;2.90;;
4808;SDS011;2418;49.930;8.606;2022-07-29T04:34:52;9.98;;;3.03;;
4808;SDS011;2418;49.930;8.606;2022-07-29T04:37:18;8.68;;;2.90;;
4808;SDS011;2418;49.930;8.606;2022-07-29T04:39:44;10.27;;;2.35;;
4808;SDS011;2418;49.930;8.606;2022-07-29T04:42:10;8.65;;;3.20;;
4808;SDS011;2418;49.930;8.606;2022-07-29T04:44:36;4.90;;;2.67;;
4808;SDS011;2418;49.930;8.606;2022-07-29T04:47:02;3.20;;;2.10;;
4808;SDS011;2418;49.930;8.606;2022-07-29T04:49:28;5.50;;;1.98;;
4808;SDS011;2418;49.930;8.606;2022-07-29T04:51:54;4.00;;;2.57;;
4808;SDS011;2418;49.930;8.606;2022-07-29T04:54:20;6.03;;;2.90;;
4808;SDS011;2418;49.930;8.606;2022-07-29T04:56:46;7.70;;;2.97;;
4808;SDS011;2418;49.930;8.606;2022-07-29T04:59:12;2.30;;;2.10;;
4808;SDS011;2418;49.930;8.606;2022-07-29T05:01:38;7.18;;;2.50;;
4808;SDS011;2418;49.930;8.606;2022-07-29T05:04:04;2.70;;;2.60;;
4808;SDS011;2418;49.930;8.606;2022-07-29T05:06:30;7.60;;;2.10;;
4808;SDS011;2418;49.930;8.606;2022-07-29T05:08:56;4.40;;;2.22;;
4808;SDS011;2418;49.930;8.606;2022-07-29T05:11:22;2.13;;;2.03;;
4808;SDS011;2418;49.930;8.606;2022-07-29T05:13:48;3.20;;;1.85;;
4808;SDS011;2418;49.930;8.606;2022-07-29T05:16:14;4.30;;;2.10;;
4808;SDS011;2418;49.930;8.606;2022-07-29T05:18:40;5.70;;;2.30;;
4808;SDS011;2418;49.930;8.606;2022-07-29T05:21:06;3.60;;;2.25;;
4808;SDS011;2418;49.930;8.606;2022-07-29T05:23:32;8.43;;;2.70;;
4808;SDS011;2418;49.930;8.606;2022-07-29T05:25:58;4.50;;;2.53;;
4808;SDS011;2418;49.930;8.606;2022-07-29T05:28:24;2.70;;;2.50;;
4808;SDS011;2418;49.930;8.606;2022-07-29T05:30:49;3.33;;;2.58;;
4808;SDS011;2418;49.930;8.606;2022-07-29T05:33:15;4.65;;;2.70;;
4808;SDS011;2418;49.930;8.606;2022-07-29T05:35:41;6.90;;;2.13;;
4808;SDS011;2418;49.930;8.606;2022-07-29T05:38:07;6.90;;;2.40;;
4808;SDS011;2418;49.930;8.606;2022-07-29T05:40:33;7.00;;;2.80;;
4808;SDS011;2418;49.930;8.606;2022-07-29T05:42:59;8.05;;;3.00;;
4808;SDS011;2418;49.930;8.606;2022-07-29T05:45:25;3.60;;;2.50;;
4808;SDS011;2418;49.930;8.606;2022-07-29T05:47:51;3.92;;;2.78;;
4808;SDS011;2418;49.930;8.606;2022-07-29T05:50:17;4.00;;;2.58;;
4808;SDS011;2418;49.930;8.606;2022-07-29T05:52:43;10.77;;;3.05;;
4808;SDS011;2418;49.930;8.606;2022-07-29T05:55:09;4.07;;;2.72;;
4808;SDS011;2418;49.930;8.606;2022-07-29T05:57:34;8.15;;;2.60;;
4808;SDS011;2418;49.930;8.606;2022-07-29T06:00:00;2.97;;;2.67;;
4808;SDS011;2418;49.930;8.606;2022-07-29T06:02:26;5.90;;;2.58;;
4808;SDS011;2418;49.930;8.606;2022-07-29T06:04:52;4.40;;;2.30;;
4808;SDS011;2418;49.930;8.606;2022-07-29T06:07:18;4.80;;;2.40;;
4808;SDS011;2418;49.930;8.606;2022-07-29T06:09:44;5.38;;;2.58;;
4808;SDS011;2418;49.930;8.606;2022-07-29T06:12:10;6.90;;;2.80;;
4808;SDS011;2418;49.930;8.606;2022-07-29T06:14:36;5.80;;;2.85;;
4808;SDS011;2418;49.930;8.606;2022-07-29T06:17:03;2.90;;;2.45;;
4808;SDS011;2418;49.930;8.606;2022-07-29T06:19:29;5.68;;;2.70;;
4808;SDS011;2418;49.930;8.606;2022-07-29T06:21:55;5.80;;;2.45;;
4808;SDS011;2418;49.930;8.606;2022-07-29T06:24:21;7.88;;;3.25;;
4808;SDS011;2418;49.930;8.606;2022-07-29T06:26:47;3.55;;;3.20;;
4808;SDS011;2418;49.930;8.606;2022-07-29T06:29:13;6.50;;;3.20;;
4808;SDS011;2418;49.930;8.606;2022-07-29T06:31:39;4.07;;;2.90;;
4808;SDS011;2418;49.930;8.606;2022-07-29T06:34:05;4.88;;;3.00;;
4808;SDS011;2418;49.930;8.606;2022-07-29T06:36:34;6.13;;;2.80;;
4808;SDS011;2418;49.930;8.606;2022-07-29T06:39:00;3.30;;;2.75;;
4808;SDS011;2418;49.930;8.606;2022-07-29T06:41:26;4.90;;;2.65;;
4808;SDS011;2418;49.930;8.606;2022-07-29T06:43:52;7.70;;;2.50;;
4808;SDS011;2418;49.930;8.606;2022-07-29T06:46:18;4.47;;;2.58;;
4808;SDS011;2418;49.930;8.606;2022-07-29T06:48:45;4.25;;;2.30;;
4808;SDS011;2418;49.930;8.606;2022-07-29T06:51:12;4.57;;;2.53;;
4808;SDS011;2418;49.930;8.606;2022-07-29T06:53:38;5.57;;;2.50;;
4808;SDS011;2418;49.930;8.606;2022-07-29T06:56:05;7.95;;;2.30;;
4808;SDS011;2418;49.930;8.606;2022-07-29T06:58:33;6.18;;;3.20;;
4808;SDS011;2418;49.930;8.606;2022-07-29T07:01:00;5.53;;;3.38;;
4808;SDS011;2418;49.930;8.606;2022-07-29T07:03:26;5.63;;;3.35;;
4808;SDS011;2418;49.930;8.606;2022-07-29T07:05:52;5.53;;;2.90;;
4808;SDS011;2418;49.930;8.606;2022-07-29T07:08:19;3.10;;;2.90;;
4808;SDS011;2418;49.930;8.606;2022-07-29T07:10:45;2.78;;;2.50;;
4808;SDS011;2418;49.930;8.606;2022-07-29T07:13:11;4.85;;;3.33;;
4808;SDS011;2418;49.930;8.606;2022-07-29T07:15:37;4.40;;;2.90;;
4808;SDS011;2418;49.930;8.606;2022-07-29T07:18:04;8.30;;;3.47;;
4808;SDS011;2418;49.930;8.606;2022-07-29T07:20:31;11.68;;;3.08;;
4808;SDS011;2418;49.930;8.606;2022-07-29T07:22:57;4.80;;;2.90;;
4808;SDS011;2418;49.930;8.606;2022-07-29T07:25:23;3.30;;;2.80;;
4808;SDS011;2418;49.930;8.606;2022-07-29T07:27:49;10.95;;;3.08;;
4808;SDS011;2418;49.930;8.606;2022-07-29T07:30:15;2.80;;;2.60;;
4808;SDS011;2418;49.930;8.606;2022-07-29T07:32:41;4.20;;;2.80;;
4808;SDS011;2418;49.930;8.606;2022-07-29T07:35:07;7.18;;;3.22;;
4808;SDS011;2418;49.930;8.606;2022-07-29T07:37:34;5.22;;;3.25;;
4808;SDS011;2418;49.930;8.606;2022-07-29T07:40:00;12.30;;;3.53;;
4808;SDS011;2418;49.930;8.606;2022-07-29T07:42:26;8.20;;;3.40;;
4808;SDS011;2418;49.930;8.606;2022-07-29T07:44:52;10.48;;;3.80;;
4808;SDS011;2418;49.930;8.606;2022-07-29T07:47:18;6.18;;;3.80;;
4808;SDS011;2418;49.930;8.606;2022-07-29T07:49:48;6.68;;;3.60;;
4808;SDS011;2418;49.930;8.606;2022-07-29T07:52:18;12.10;;;3.67;;
4808;SDS011;2418;49.930;8.606;2022-07-29T07:54:45;5.60;;;3.20;;
4808;SDS011;2418;49.930;8.606;2022-07-29T07:57:11;7.50;;;3.50;;
4808;SDS011;2418;49.930;8.606;2022-07-29T07:59:55;13.13;;;4.07;;
4808;SDS011;2418;49.930;8.606;2022-07-29T08:02:20;3.28;;;3.17;;
4808;SDS011;2418;49.930;8.606;2022-07-29T08:04:47;4.93;;;3.25;;
4808;SDS011;2418;49.930;8.606;2022-07-29T08:07:13;3.50;;;3.20;;
4808;SDS011;2418;49.930;8.606;2022-07-29T08:09:39;3.40;;;3.10;;
4808;SDS011;2418;49.930;8.606;2022-07-29T08:12:05;6.05;;;3.20;;
4808;SDS011;2418;49.930;8.606;2022-07-29T08:14:32;3.63;;;3.42;;
4808;SDS011;2418;49.930;8.606;2022-07-29T08:16:58;4.07;;;3.70;;
4808;SDS011;2418;49.930;8.606;2022-07-29T08:19:24;6.32;;;3.50;;
4808;SDS011;2418;49.930;8.606;2022-07-29T08:21:51;6.03;;;3.00;;
4808;SDS011;2418;49.930;8.606;2022-07-29T08:24:18;5.43;;;3.28;;
4808;SDS011;2418;49.930;8.606;2022-07-29T08:27:03;4.40;;;3.40;;
4808;SDS011;2418;49.930;8.606;2022-07-29T08:29:29;4.13;;;3.83;;
4808;SDS011;2418;49.930;8.606;2022-07-29T08:31:55;5.73;;;3.40;;
4808;SDS011;2418;49.930;8.606;2022-07-29T08:34:21;4.10;;;3.37;;
4808;SDS011;2418;49.930;8.606;2022-07-29T08:36:47;6.80;;;3.67;;
4808;SDS011;2418;49.930;8.606;2022-07-29T08:39:13;10.15;;;3.60;;
4808;SDS011;2418;49.930;8.606;2022-07-29T08:41:39;3.13;;;2.92;;
4808;SDS011;2418;49.930;8.606;2022-07-29T08:44:05;4.07;;;3.05;;
4808;SDS011;2418;49.930;8.606;2022-07-29T08:46:31;5.18;;;3.75;;
4808;SDS011;2418;49.930;8.606;2022-07-29T08:48:57;3.60;;;3.30;;
4808;SDS011;2418;49.930;8.606;2022-07-29T08:51:23;3.58;;;2.80;;
4808;SDS011;2418;49.930;8.606;2022-07-29T08:53:51;6.72;;;3.10;;
4808;SDS011;2418;49.930;8.606;2022-07-29T08:56:17;3.40;;;3.30;;
4808;SDS011;2418;49.930;8.606;2022-07-29T08:58:44;3.50;;;3.20;;
4808;SDS011;2418;49.930;8.606;2022-07-29T09:01:10;3.33;;;3.10;;
4808;SDS011;2418;49.930;8.606;2022-07-29T09:03:38;4.10;;;3.13;;
4808;SDS011;2418;49.930;8.606;2022-07-29T09:06:05;3.13;;;2.92;;
4808;SDS011;2418;49.930;8.606;2022-07-29T09:08:32;3.50;;;3.20;;
4808;SDS011;2418;49.930;8.606;2022-07-29T09:10:58;3.42;;;3.20;;
4808;SDS011;2418;49.930;8.606;2022-07-29T09:13:25;3.77;;;3.40;;
4808;SDS011;2418;49.930;8.606;2022-07-29T09:15:51;3.00;;;2.83;;
4808;SDS011;2418;49.930;8.606;2022-07-29T09:18:40;5.40;;;2.90;;
4808;SDS011;2418;49.930;8.606;2022-07-29T09:21:08;3.78;;;3.33;;
4808;SDS011;2418;49.930;8.606;2022-07-29T09:26:33;6.43;;;3.50;;
4808;SDS011;2418;49.930;8.606;2022-07-29T09:28:59;8.77;;;3.33;;
4808;SDS011;2418;49.930;8.606;2022-07-29T09:31:32;3.77;;;3.47;;
4808;SDS011;2418;49.930;8.606;2022-07-29T09:33:59;3.38;;;3.03;;
4808;SDS011;2418;49.930;8.606;2022-07-29T09:36:25;3.25;;;3.05;;
4808;SDS011;2418;49.930;8.606;2022-07-29T09:38:58;3.25;;;3.15;;
4808;SDS011;2418;49.930;8.606;2022-07-29T09:41:25;5.78;;;2.95;;
4808;SDS011;2418;49.930;8.606;2022-07-29T09:43:58;3.53;;;3.33;;
4808;SDS011;2418;49.930;8.606;2022-07-29T09:46:24;3.60;;;3.40;;
4808;SDS011;2418;49.930;8.606;2022-07-29T09:49:09;3.13;;;3.03;;
4808;SDS011;2418;49.930;8.606;2022-07-29T09:51:35;3.00;;;2.70;;
4808;SDS011;2418;49.930;8.606;2022-07-29T09:54:01;3.30;;;3.10;;
4808;SDS011;2418;49.930;8.606;2022-07-29T09:56:42;3.90;;;3.60;;
4808;SDS011;2418;49.930;8.606;2022-07-29T09:59:08;6.43;;;3.58;;
4808;SDS011;2418;49.930;8.606;2022-07-29T10:01:36;3.58;;;3.28;;
4808;SDS011;2418;49.930;8.606;2022-07-29T10:04:03;4.38;;;3.47;;
4808;SDS011;2418;49.930;8.606;2022-07-29T10:06:29;2.80;;;2.60;;
4808;SDS011;2418;49.930;8.606;2022-07-29T10:08:55;4.38;;;2.90;;
4808;SDS011;2418;49.930;8.606;2022-07-29T10:11:33;5.45;;;3.50;;
4808;SDS011;2418;49.930;8.606;2022-07-29T10:13:58;4.47;;;3.45;;
4808;SDS011;2418;49.930;8.606;2022-07-29T10:16:27;3.78;;;3.40;;
4808;SDS011;2418;49.930;8.606;2022-07-29T10:18:57;3.65;;;3.30;;
4808;SDS011;2418;49.930;8.606;2022-07-29T10:21:24;3.80;;;3.50;;
4808;SDS011;2418;49.930;8.606;2022-07-29T10:23:50;3.92;;;3.22;;
4808;SDS011;2418;49.930;8.606;2022-07-29T10:26:16;3.35;;;3.10;;
4808;SDS011;2418;49.930;8.606;2022-07-29T10:28:43;3.38;;;2.85;;
4808;SDS011;2418;49.930;8.606;2022-07-29T10:31:11;5.05;;;3.50;;
4808;SDS011;2418;49.930;8.606;2022-07-29T10:33:51;4.57;;;3.15;;
4808;SDS011;2418;49.930;8.606;2022-07-29T10:36:21;3.33;;;3.03;;
4808;SDS011;2418;49.930;8.606;2022-07-29T10:39:10;3.78;;;3.35;;
4808;SDS011;2418;49.930;8.606;2022-07-29T10:41:43;3.23;;;2.90;;
4808;SDS011;2418;49.930;8.606;2022-07-29T10:44:17;3.33;;;3.13;;
4808;SDS011;2418;49.930;8.606;2022-07-29T10:46:45;3.70;;;3.60;;
4808;SDS011;2418;49.930;8.606;2022-07-29T10:49:12;5.70;;;3.17;;
4808;SDS011;2418;49.930;8.606;2022-07-29T10:51:55;4.30;;;3.10;;
4808;SDS011;2418;49.930;8.606;2022-07-29T10:54:38;3.60;;;3.10;;
4808;SDS011;2418;49.930;8.606;2022-07-29T10:59:38;4.70;;;3.22;;
4808;SDS011;2418;49.930;8.606;2022-07-29T11:07:15;6.45;;;3.45;;
4808;SDS011;2418;49.930;8.606;2022-07-29T11:09:41;3.00;;;2.90;;
4808;SDS011;2418;49.930;8.606;2022-07-29T11:14:55;2.97;;;2.88;;
4808;SDS011;2418;49.930;8.606;2022-07-29T11:17:21;3.13;;;2.92;;
4808;SDS011;2418;49.930;8.606;2022-07-29T11:19:47;3.00;;;2.80;;
4808;SDS011;2418;49.930;8.606;2022-07-29T11:22:31;4.10;;;3.15;;
4808;SDS011;2418;49.930;8.606;2022-07-29T11:25:16;3.60;;;3.40;;
4808;SDS011;2418;49.930;8.606;2022-07-29T11:27:42;3.53;;;3.22;;
4808;SDS011;2418;49.930;8.606;2022-07-29T11:30:09;3.60;;;3.30;;
4808;SDS011;2418;49.930;8.606;2022-07-29T11:32:38;3.55;;;3.25;;
4808;SDS011;2418;49.930;8.606;2022-07-29T11:35:14;6.15;;;3.45;;
4808;SDS011;2418;49.930;8.606;2022-07-29T11:37:42;4.20;;;3.17;;
4808;SDS011;2418;49.930;8.606;2022-07-29T11:40:09;3.25;;;3.15;;
4808;SDS011;2418;49.930;8.606;2022-07-29T11:45:03;3.30;;;3.10;;
4808;SDS011;2418;49.930;8.606;2022-07-29T11:47:35;4.90;;;3.25;;
4808;SDS011;2418;49.930;8.606;2022-07-29T11:50:02;5.73;;;3.30;;
4808;SDS011;2418;49.930;8.606;2022-07-29T11:52:35;3.35;;;3.15;;
4808;SDS011;2418;49.930;8.606;2022-07-29T11:55:07;5.20;;;3.13;;
4808;SDS011;2418;49.930;8.606;2022-07-29T11:57:34;3.15;;;3.05;;
4808;SDS011;2418;49.930;8.606;2022-07-29T12:00:00;6.13;;;3.53;;
4808;SDS011;2418;49.930;8.606;2022-07-29T12:02:37;3.10;;;3.00;;
4808;SDS011;2418;49.930;8.606;2022-07-29T12:05:04;4.45;;;3.30;;
4808;SDS011;2418;49.930;8.606;2022-07-29T12:07:30;3.63;;;3.20;;
4808;SDS011;2418;49.930;8.606;2022-07-29T12:09:57;3.67;;;3.38;;
4808;SDS011;2418;49.930;8.606;2022-07-29T12:12:23;6.00;;;2.80;;
4808;SDS011;2418;49.930;8.606;2022-07-29T12:14:49;4.68;;;3.63;;
4808;SDS011;2418;49.930;8.606;2022-07-29T12:17:25;4.22;;;3.38;;
4808;SDS011;2418;49.930;8.606;2022-07-29T12:19:52;3.05;;;2.95;;
4808;SDS011;2418;49.930;8.606;2022-07-29T12:22:28;7.10;;;3.10;;
4808;SDS011;2418;49.930;8.606;2022-07-29T12:25:00;3.10;;;2.83;;
4808;SDS011;2418;49.930;8.606;2022-07-29T12:27:26;3.35;;;3.00;;
4808;SDS011;2418;49.930;8.606;2022-07-29T12:29:56;3.30;;;2.90;;
4808;SDS011;2418;49.930;8.606;2022-07-29T12:32:22;3.10;;;2.65;;
4808;SDS011;2418;49.930;8.606;2022-07-29T12:34:48;3.20;;;3.00;;
4808;SDS011;2418;49.930;8.606;2022-07-29T12:37:15;3.50;;;3.30;;
4808;SDS011;2418;49.930;8.606;2022-07-29T12:39:41;2.90;;;2.80;;
4808;SDS011;2418;49.930;8.606;2022-07-29T12:42:14;3.15;;;2.80;;
4808;SDS011;2418;49.930;8.606;2022-07-29T12:44:44;4.50;;;2.90;;
4808;SDS011;2418;49.930;8.606;2022-07-29T12:47:10;2.63;;;2.50;;
4808;SDS011;2418;49.930;8.606;2022-07-29T12:49:36;5.00;;;3.05;;
4808;SDS011;2418;49.930;8.606;2022-07-29T12:52:22;3.10;;;2.90;;
4808;SDS011;2418;49.930;8.606;2022-07-29T12:54:48;3.50;;;2.80;;
4808;SDS011;2418;49.930;8.606;2022-07-29T12:57:14;3.60;;;3.40;;
4808;SDS011;2418;49.930;8.606;2022-07-29T12:59:40;3.27;;;3.07;;
4808;SDS011;2418;49.930;8.606;2022-07-29T13:02:06;3.93;;;2.80;;
4808;SDS011;2418;49.930;8.606;2022-07-29T13:04:32;3.13;;;2.90;;
4808;SDS011;2418;49.930;8.606;2022-07-29T13:07:05;3.30;;;3.10;;
4808;SDS011;2418;49.930;8.606;2022-07-29T13:09:41;3.30;;;3.10;;
4808;SDS011;2418;49.930;8.606;2022-07-29T13:12:08;3.58;;;3.28;;
4808;SDS011;2418;49.930;8.606;2022-07-29T13:14:38;4.60;;;2.90;;
4808;SDS011;2418;49.930;8.606;2022-07-29T13:17:09;4.20;;;3.00;;
4808;SDS011;2418;49.930;8.606;2022-07-29T13:19:43;3.03;;;2.80;;
4808;SDS011;2418;49.930;8.606;2022-07-29T13:22:13;3.70;;;3.40;;
4808;SDS011;2418;49.930;8.606;2022-07-29T13:24:46;18.30;;;5.30;;
4808;SDS011;2418;49.930;8.606;2022-07-29T13:27:16;11.40;;;3.70;;
4808;SDS011;2418;49.930;8.606;2022-07-29T13:29:42;4.03;;;3.03;;
4808;SDS011;2418;49.930;8.606;2022-07-29T13:32:08;3.00;;;2.80;;
4808;SDS011;2418;49.930;8.606;2022-07-29T13:34:34;5.90;;;3.20;;
4808;SDS011;2418;49.930;8.606;2022-07-29T13:37:00;3.97;;;3.75;;
4808;SDS011;2418;49.930;8.606;2022-07-29T13:39:26;4.60;;;3.30;;
4808;SDS011;2418;49.930;8.606;2022-07-29T13:41:52;6.95;;;3.45;;
4808;SDS011;2418;49.930;8.606;2022-07-29T13:44:18;4.05;;;3.17;;
4808;SDS011;2418;49.930;8.606;2022-07-29T13:46:44;3.03;;;2.88;;
4808;SDS011;2418;49.930;8.606;2022-07-29T13:49:10;3.05;;;2.85;;
4808;SDS011;2418;49.930;8.606;2022-07-29T13:51:36;7.10;;;3.30;;
4808;SDS011;2418;49.930;8.606;2022-07-29T13:54:02;4.60;;;3.58;;
4808;SDS011;2418;49.930;8.606;2022-07-29T13:56:28;7.13;;;3.00;;
4808;SDS011;2418;49.930;8.606;2022-07-29T13:58:54;4.15;;;3.30;;
4808;SDS011;2418;49.930;8.606;2022-07-29T14:01:20;4.20;;;3.13;;
4808;SDS011;2418;49.930;8.606;2022-07-29T14:03:46;5.30;;;3.30;;
4808;SDS011;2418;49.930;8.606;2022-07-29T14:06:12;3.25;;;2.95;;
4808;SDS011;2418;49.930;8.606;2022-07-29T14:08:38;2.67;;;2.53;;
4808;SDS011;2418;49.930;8.606;2022-07-29T14:11:04;3.40;;;3.20;;
4808;SDS011;2418;49.930;8.606;2022-07-29T14:13:30;3.10;;;2.70;;
4808;SDS011;2418;49.930;8.606;2022-07-29T14:15:56;2.90;;;2.70;;
4808;SDS011;2418;49.930;8.606;2022-07-29T14:18:22;3.60;;;2.80;;
4808;SDS011;2418;49.930;8.606;2022-07-29T14:20:48;2.90;;;2.65;;
4808;SDS011;2418;49.930;8.606;2022-07-29T14:23:16;5.03;;;3.28;;
4808;SDS011;2418;49.930;8.606;2022-07-29T14:25:42;5.70;;;3.10;;
4808;SDS011;2418;49.930;8.606;2022-07-29T14:28:08;6.30;;;2.63;;
4808;SDS011;2418;49.930;8.606;2022-07-29T14:30:34;2.92;;;2.80;;
4808;SDS011;2418;49.930;8.606;2022-07-29T14:33:00;3.42;;;2.83;;
4808;SDS011;2418;49.930;8.606;2022-07-29T14:35:26;5.60;;;3.80;;
4808;SDS011;2418;49.930;8.606;2022-07-29T14:37:52;4.47;;;2.97;;
4808;SDS011;2418;49.930;8.606;2022-07-29T14:40:19;4.60;;;2.50;;
4808;SDS011;2418;49.930;8.606;2022-07-29T14:42:45;3.10;;;3.00;;
4808;SDS011;2418;49.930;8.606;2022-07-29T14:45:11;3.00;;;2.90;;
4808;SDS011;2418;49.930;8.606;2022-07-29T14:47:37;10.35;;;3.30;;
4808;SDS011;2418;49.930;8.606;2022-07-29T14:50:04;3.10;;;2.90;;
4808;SDS011;2418;49.930;8.606;2022-07-29T14:52:31;4.28;;;3.40;;
4808;SDS011;2418;49.930;8.606;2022-07-29T14:54:57;3.10;;;2.80;;
4808;SDS011;2418;49.930;8.606;2022-07-29T14:57:23;3.20;;;3.00;;
4808;SDS011;2418;49.930;8.606;2022-07-29T14:59:48;4.00;;;3.20;;
4808;SDS011;2418;49.930;8.606;2022-07-29T15:02:14;6.07;;;3.58;;
4808;SDS011;2418;49.930;8.606;2022-07-29T15:04:40;2.90;;;2.90;;
4808;SDS011;2418;49.930;8.606;2022-07-29T15:07:06;3.78;;;3.47;;
4808;SDS011;2418;49.930;8.606;2022-07-29T15:09:33;5.30;;;3.40;;
4808;SDS011;2418;49.930;8.606;2022-07-29T15:11:59;7.20;;;2.87;;
4808;SDS011;2418;49.930;8.606;2022-07-29T15:14:25;2.60;;;2.40;;
4808;SDS011;2418;49.930;8.606;2022-07-29T15:16:50;3.93;;;3.10;;
4808;SDS011;2418;49.930;8.606;2022-07-29T15:19:16;5.75;;;2.50;;
4808;SDS011;2418;49.930;8.606;2022-07-29T15:21:42;3.20;;;2.67;;
4808;SDS011;2418;49.930;8.606;2022-07-29T15:24:08;3.03;;;2.45;;
4808;SDS011;2418;49.930;8.606;2022-07-29T15:26:34;2.47;;;2.38;;
4808;SDS011;2418;49.930;8.606;2022-07-29T15:29:00;7.90;;;2.60;;
4808;SDS011;2418;49.930;8.606;2022-07-29T15:31:26;3.03;;;2.70;;
4808;SDS011;2418;49.930;8.606;2022-07-29T15:33:52;5.00;;;2.70;;
4808;SDS011;2418;49.930;8.606;2022-07-29T15:36:17;3.90;;;2.67;;
4808;SDS011;2418;49.930;8.606;2022-07-29T15:38:43;6.70;;;2.50;;
4808;SDS011;2418;49.930;8.606;2022-07-29T15:41:12;2.75;;;2.55;;
4808;SDS011;2418;49.930;8.606;2022-07-29T15:43:41;2.60;;;2.50;;